首页
METAR-TAF:

METAR-TAF

机场 :

Offutt Air Force Base

奥马哈, 內布拉斯加州, 美国

纬度: 41-07N, 经度: 095-54W, 海拔: 319米

当前天气观测

该预报发布于48分钟前的09:56 UTC
风速8节,风向西北
温度 17°C
湿度 94%
气压 1011 hPa
能見度: 14.5公里
阴天层高于600英尺
轻雾

METAR: KOFF 260956Z AUTO 32008KT 9SM BR OVC006 17/16 A2984 RMK AO2 SLP105 T01690157 $

时间: 05:44 (10:44 UTC)

预报

该预报发布于44分钟前的10:00 UTC
预报有效从26日的 10点(UTC)到 27日的 16点(UTC)
风速9节,风向西北
能見度: 8000
阴天层高于500英尺
轻雾
成为
从 26日的 14点(UTC)到 26日的 15点(UTC)
风速9节,风向
能見度: 8000
阴天层高于500英尺
小阵雨
成为
从 26日的 22点(UTC)到 26日的 23点(UTC)
风速12节,风向北转西北,有时为18节阵风
能見度: 8000
多云层高于700英尺
轻雾
成为
从 27日的 06点(UTC)到 27日的 07点(UTC)
风速9节,风向西北
能見度: 8000
阴天层高于500英尺
轻雾
成为
从 27日的 14点(UTC)到 27日的 15点(UTC)
风速6节,风向多变
能見度: 8000
阴天层高于300英尺
轻雾

TAF: KOFF 261000Z 2610/2716 32009KT 8000 BR OVC005 QNH2984INS BECMG 2614/2615 36009KT 8000 -SHRA OVC005 QNH2970INS BECMG 2622/2623 34012G18KT 8000 BR BKN007 QNH2970INS BECMG 2706/2707 32009KT 8000 BR OVC005 QNH2982INS BECMG 2714/2715 VRB06KT 8000 BR OVC003 QNH2990INS TX18/2622Z TN16/2612Z

超过4000个机场的气象观测和天气预报(METAR&TAF报告)。

可查询的气象台以黄色和红色小点在地图上表示。

将鼠标移到小点上方,可查看气象台名称。

然后点击查看天气观测和预报。

如需切换地图:点击带黑十字的绿色按钮放大地图;点击带横线的绿色按钮缩小地图;或者点击绿色箭头查看邻近地区的地图。


METAR-TAF: